Time;durP1;ratioP1;P1;durP2;ratioP2;P2;SDS_P1;SDS_P2;PMS_P1;PMS_P2;Temp;Humidity;BMP_temperature;BMP_pressure;BME280_temperature;BME280_humidity;BME280_pressure;Samples;Min_cycle;Max_cycle;Signal;HPM_P1;HPM_P2
2022/12/15 07:07:00;;;;;;;30.15;23.50;;;;;;;-3.76;82.24;100631.91;5310877;27;20437;-80
2022/12/15 07:09:32;;;;;;;32.42;23.58;;;;;;;-3.77;82.36;100641.91;5299270;28;20032;-80
2022/12/15 07:12:03;;;;;;;31.58;22.98;;;;;;;-3.72;82.40;100641.31;5290752;28;20029;-78
2022/12/15 07:14:34;;;;;;;30.45;23.52;;;;;;;-3.68;82.37;100645.31;5295815;28;20038;-79
2022/12/15 07:17:10;;;;;;;31.48;24.33;;;;;;;-3.68;82.19;100648.03;5300180;28;20032;-79
2022/12/15 07:19:41;;;;;;;31.98;23.98;;;;;;;-3.65;82.72;100650.34;5302401;28;20035;-79
2022/12/15 07:22:12;;;;;;;32.20;24.05;;;;;;;-3.64;82.73;100649.28;5302371;28;20100;-78
2022/12/15 07:24:44;;;;;;;32.70;24.50;;;;;;;-3.63;82.85;100642.84;5303248;28;20024;-78
2022/12/15 07:27:16;;;;;;;35.85;24.02;;;;;;;-3.65;82.72;100644.91;5295951;28;20020;-80
2022/12/15 07:29:48;;;;;;;32.65;22.95;;;;;;;-3.64;82.77;100646.56;5299268;28;20024;-79
2022/12/15 07:32:19;;;;;;;30.40;22.45;;;;;;;-3.56;83.11;100648.28;5299429;28;20024;-79
2022/12/15 07:34:55;;;;;;;29.10;22.65;;;;;;;-3.62;82.94;100649.91;5299926;28;20036;-79
2022/12/15 07:37:28;;;;;;;;;;;;;;;-3.40;82.53;100649.78;5281773;28;20131;-80
2022/12/15 07:40:00;;;;;;;34.63;23.10;;;;;;;-3.63;82.40;100650.09;5300405;28;20358;-80
2022/12/15 07:42:31;;;;;;;32.75;24.70;;;;;;;-3.75;82.69;100655.28;5290767;28;20123;-80
2022/12/15 07:45:04;;;;;;;32.92;24.67;;;;;;;-3.63;83.49;100658.25;5292181;28;20031;-80
2022/12/15 07:47:35;;;;;;;42.83;31.10;;;;;;;-3.48;83.73;100658.09;5295682;28;20027;-79
2022/12/15 07:50:07;;;;;;;40.78;28.88;;;;;;;-3.57;82.85;100660.16;5302485;28;20012;-84
2022/12/15 07:52:39;;;;;;;36.17;25.15;;;;;;;-3.48;82.79;100660.81;5311015;28;20058;-82
2022/12/15 07:55:15;;;;;;;35.83;24.00;;;;;;;-3.42;83.05;100663.56;5301602;28;20067;-83
2022/12/15 07:57:47;;;;;;;38.28;27.30;;;;;;;-3.37;82.57;100662.97;5296972;28;20459;-82
2022/12/15 08:00:22;;;;;;;36.47;28.48;;;;;;;-3.36;82.47;100664.63;5299807;28;20021;-76
2022/12/15 08:02:53;;;;;;;40.38;29.45;;;;;;;-2.74;88.26;100673.56;5292453;28;20025;-75
2022/12/15 08:05:25;;;;;;;36.65;26.77;;;;;;;-3.04;85.85;100673.06;5294392;28;20051;-77
2022/12/15 08:07:57;;;;;;;36.92;24.70;;;;;;;-2.94;82.93;100678.94;5309200;28;20028;-73
2022/12/15 08:10:28;;;;;;;35.28;24.92;;;;;;;-2.96;82.03;100678.34;5309147;28;20028;-73
2022/12/15 08:13:00;;;;;;;34.83;26.38;;;;;;;-2.81;83.48;100681.72;5312408;28;20020;-74
2022/12/15 08:15:34;;;;;;;30.52;23.92;;;;;;;-2.96;82.27;100681.06;5307982;28;20511;-73
2022/12/15 08:18:07;;;;;;;36.72;24.52;;;;;;;-3.00;81.86;100680.59;5298100;28;20125;-73
2022/12/15 08:20:39;;;;;;;35.08;26.15;;;;;;;-2.94;81.87;100677.09;5302407;28;20016;-73
2022/12/15 08:23:10;;;;;;;32.97;25.27;;;;;;;-3.04;81.51;100678.50;5309869;28;20417;-73
2022/12/15 08:25:42;;;;;;;36.35;26.48;;;;;;;-3.06;82.28;100687.69;5300454;28;20077;-72
2022/12/15 08:28:14;;;;;;;35.53;25.40;;;;;;;-3.10;82.23;100681.00;5285302;28;20440;-72
2022/12/15 08:30:45;;;;;;;32.65;25.52;;;;;;;-3.18;82.07;100691.19;5304760;28;20111;-73
2022/12/15 08:33:16;;;;;;;37.70;26.40;;;;;;;-3.25;82.16;100688.44;5304942;28;20352;-72
2022/12/15 08:35:49;;;;;;;33.35;25.13;;;;;;;-3.12;82.38;100683.09;5293920;28;20103;-73
2022/12/15 08:38:20;;;;;;;35.03;25.70;;;;;;;-3.21;82.45;100681.59;5297995;28;20028;-72
2022/12/15 08:40:51;;;;;;;33.65;26.20;;;;;;;-3.23;82.17;100686.38;5300063;28;20035;-73
2022/12/15 08:43:23;;;;;;;35.95;25.88;;;;;;;-3.19;82.12;100687.66;5299277;28;20475;-72
2022/12/15 08:46:00;;;;;;;34.33;25.75;;;;;;;-3.19;82.63;100682.22;5298648;28;20204;-73
2022/12/15 08:48:34;;;;;;;38.03;27.23;;;;;;;-3.14;82.66;100685.16;5295330;28;20487;-71
2022/12/15 08:51:06;;;;;;;36.55;26.48;;;;;;;-3.16;82.11;100689.94;5291035;28;20069;-72
2022/12/15 08:53:41;;;;;;;35.25;26.45;;;;;;;-3.07;82.38;100691.47;5303127;28;20016;-72
2022/12/15 08:56:16;;;;;;;32.17;26.20;;;;;;;-3.03;82.42;100707.31;5298611;28;20024;-72
2022/12/15 08:58:48;;;;;;;31.37;25.00;;;;;;;-3.04;82.17;100705.63;5297730;28;20036;-73
2022/12/15 09:01:21;;;;;;;35.45;25.85;;;;;;;-3.03;82.22;100707.31;5296365;28;20486;-72
2022/12/15 09:03:54;;;;;;;37.20;26.33;;;;;;;-3.03;82.03;100710.88;5304010;28;20039;-71
2022/12/15 09:06:28;;;;;;;34.95;26.58;;;;;;;-3.00;82.40;100715.06;5303360;28;20051;-71
2022/12/15 09:09:03;;;;;;;34.72;27.35;;;;;;;-2.83;83.02;100724.50;5295332;28;20028;-72
2022/12/15 09:11:35;;;;;;;34.03;26.02;;;;;;;-2.86;82.39;100731.19;5303570;28;20024;-71
2022/12/15 09:14:06;;;;;;;33.28;25.20;;;;;;;-2.83;82.59;100729.94;5303255;28;20085;-71
2022/12/15 09:16:38;;;;;;;35.95;27.92;;;;;;;-2.81;82.57;100733.28;5296450;28;20375;-71
2022/12/15 09:19:09;;;;;;;34.28;24.83;;;;;;;-2.81;82.89;100738.72;5292893;28;20047;-72
2022/12/15 09:21:43;;;;;;;34.22;25.90;;;;;;;-2.76;82.56;100741.66;5295347;28;20067;-72
2022/12/15 09:24:15;;;;;;;33.38;26.40;;;;;;;-2.68;83.04;100732.47;5303118;28;20111;-72
2022/12/15 09:26:46;;;;;;;35.38;26.50;;;;;;;-2.67;82.58;100748.53;5302460;28;20111;-71
2022/12/15 09:29:18;;;;;;;35.72;26.65;;;;;;;-2.56;82.04;100751.69;5296280;28;20023;-71
2022/12/15 09:31:49;;;;;;;34.05;24.90;;;;;;;-2.54;81.65;100755.06;5285218;28;20032;-71
2022/12/15 09:34:20;;;;;;;35.00;26.58;;;;;;;-2.53;80.97;100749.44;5291821;28;20452;-73
2022/12/15 09:36:52;;;;;;;37.42;27.10;;;;;;;-2.56;81.75;100757.97;5298318;28;20020;-72
2022/12/15 09:39:23;;;;;;;35.15;28.00;;;;;;;-2.51;82.02;100760.06;5298815;28;20044;-72
2022/12/15 09:41:58;;;;;;;35.78;27.98;;;;;;;-2.48;81.94;100763.22;5295020;28;20082;-72
2022/12/15 09:44:31;;;;;;;35.53;27.50;;;;;;;-2.37;82.19;100767.22;5303100;28;20040;-73
2022/12/15 09:47:05;;;;;;;36.00;28.58;;;;;;;-2.35;81.72;100762.41;5300180;28;20330;-72
2022/12/15 09:49:54;;;;;;;39.83;27.83;;;;;;;-2.23;82.14;100768.88;5284962;28;20060;-71
2022/12/15 09:52:48;;;;;;;35.42;26.70;;;;;;;-2.29;81.81;100774.34;5289789;28;20093;-70
2022/12/15 09:55:25;;;;;;;35.25;26.70;;;;;;;-2.22;81.85;100781.44;5287967;28;20137;-71
2022/12/15 09:58:02;;;;;;;39.33;28.48;;;;;;;-2.26;82.15;100771.19;5293841;28;20032;-72
2022/12/15 10:00:42;;;;;;;33.72;26.15;;;;;;;-2.14;82.59;100768.72;5303362;28;20475;-72
2022/12/15 10:03:16;;;;;;;35.60;27.88;;;;;;;-2.23;82.18;100768.88;5294960;28;20036;-72
2022/12/15 10:06:14;;;;;;;38.58;27.45;;;;;;;-2.01;82.64;100768.72;5302228;28;20083;-75
2022/12/15 10:09:13;;;;;;;32.70;26.48;;;;;;;-1.98;81.92;100762.84;5303716;28;20024;-74
2022/12/15 10:11:50;;;;;;;37.50;28.15;;;;;;;-1.94;82.45;100775.00;5289931;28;20039;-75
2022/12/15 10:14:55;;;;;;;34.25;26.38;;;;;;;-1.75;82.73;100770.59;5287909;28;20024;-73
2022/12/15 10:17:44;;;;;;;34.30;26.08;;;;;;;-1.80;82.46;100768.47;5289828;28;20048;-74
2022/12/15 10:20:22;;;;;;;32.25;25.77;;;;;;;-1.63;82.14;100773.50;5301238;28;20112;-74
2022/12/15 10:22:58;;;;;;;35.05;26.20;;;;;;;-1.63;81.64;100768.06;5295610;28;20043;-71
2022/12/15 10:25:30;;;;;;;41.10;29.17;;;;;;;-1.49;81.76;100764.25;5293242;28;20027;-71
2022/12/15 10:28:20;;;;;;;33.45;25.83;;;;;;;-1.43;82.20;100760.72;5292673;28;20085;-71
2022/12/15 10:30:58;;;;;;;35.25;26.73;;;;;;;-1.40;81.98;100768.44;5294158;28;20047;-72
2022/12/15 10:33:34;;;;;;;32.95;25.38;;;;;;;-1.26;81.68;100771.13;5295335;28;20032;-72
2022/12/15 10:36:15;;;;;;;31.25;25.15;;;;;;;-1.22;81.22;100777.81;5304268;28;20066;-71
2022/12/15 10:38:46;;;;;;;35.88;28.13;;;;;;;-1.16;80.80;100776.94;5304747;28;20028;-71
2022/12/15 10:41:24;;;;;;;31.52;25.42;;;;;;;-1.07;81.09;100783.84;5295213;28;20020;-72
2022/12/15 10:43:56;;;;;;;55.85;44.25;;;;;;;-1.08;80.75;100779.44;5298019;28;20032;-71
2022/12/15 10:46:30;;;;;;;34.05;25.85;;;;;;;-0.95;80.64;100776.66;5301674;28;20395;-71
2022/12/15 10:49:24;;;;;;;40.00;28.55;;;;;;;-0.86;80.72;100780.00;5293034;28;20024;-71
2022/12/15 10:51:59;;;;;;;35.28;27.95;;;;;;;-0.87;80.80;100781.03;5286993;28;20491;-72
2022/12/15 10:54:42;;;;;;;32.13;25.60;;;;;;;-0.80;80.81;100775.56;5302255;28;20016;-71
2022/12/15 10:57:22;;;;;;;32.03;27.02;;;;;;;-0.81;80.92;100774.75;5294842;28;20188;-71
2022/12/15 11:00:00;;;;;;;35.63;26.05;;;;;;;-0.67;80.59;100775.50;5303035;28;20047;-73
2022/12/15 11:02:32;;;;;;;37.38;27.92;;;;;;;-0.52;81.31;100773.31;5302592;28;20020;-74
2022/12/15 11:05:14;;;;;;;34.80;26.65;;;;;;;-0.53;81.13;100771.66;5299675;28;20089;-74
2022/12/15 11:08:13;;;;;;;31.85;25.20;;;;;;;-0.49;80.38;100775.59;5291365;28;20036;-74
2022/12/15 11:14:22;;;;;;;;;;;;;;;-0.29;80.84;100786.38;5300885;28;20036;-73
2022/12/15 11:16:58;;;;;;;38.95;27.23;;;;;;;-0.37;80.50;100781.19;5291529;28;19919;-73
2022/12/15 11:19:43;;;;;;;35.13;25.73;;;;;;;-0.27;81.02;100775.28;5298655;28;20039;-73
2022/12/15 11:22:30;;;;;;;33.90;25.10;;;;;;;-0.19;80.82;100764.09;5297163;28;20139;-73
2022/12/15 11:25:15;;;;;;;84.50;54.90;;;;;;;-0.13;81.36;100768.66;5299113;28;20024;-73
2022/12/15 11:27:49;;;;;;;34.47;25.88;;;;;;;-0.07;80.17;100762.34;5289982;28;20394;-71
2022/12/15 11:30:25;;;;;;;34.90;24.67;;;;;;;0.06;80.65;100764.13;5302562;28;20036;-71
2022/12/15 11:33:00;;;;;;;;;;;;;;;0.14;80.42;100763.00;5292174;28;20051;-72
2022/12/15 11:35:37;;;;;;;32.08;23.77;;;;;;;0.07;79.61;100763.06;5298248;28;19924;-71
2022/12/15 11:38:24;;;;;;;38.05;29.48;;;;;;;0.21;79.26;100761.06;5302092;28;20122;-72
2022/12/15 11:41:23;;;;;;;33.67;25.38;;;;;;;0.17;78.38;100773.47;5290523;28;20032;-73
2022/12/15 11:44:17;;;;;;;34.30;24.90;;;;;;;0.25;79.09;100765.00;5308083;28;20114;-71
2022/12/15 11:47:12;;;;;;;31.98;25.15;;;;;;;0.26;78.57;100761.22;5320013;28;20032;-72
2022/12/15 11:50:11;;;;;;;33.10;25.38;;;;;;;0.37;78.92;100763.22;5315021;28;20137;-72
2022/12/15 11:53:08;;;;;;;31.80;24.27;;;;;;;0.41;78.03;100759.00;5326046;28;20072;-72
2022/12/15 11:56:07;;;;;;;36.60;26.02;;;;;;;0.50;77.59;100753.25;5313174;28;20031;-71
2022/12/15 11:59:12;;;;;;;34.00;25.15;;;;;;;0.48;78.12;100747.16;5322655;28;20028;-70
2022/12/15 12:01:54;;;;;;;35.47;26.58;;;;;;;0.47;77.25;100745.50;5315902;28;20044;-71
2022/12/15 12:04:42;;;;;;;26.77;21.77;;;;;;;1.40;91.11;100749.84;5318469;28;20025;-70
2022/12/15 12:07:35;;;;;;;34.05;27.27;;;;;;;1.20;83.46;100741.91;5314356;28;20091;-71
2022/12/15 12:10:31;;;;;;;34.33;27.33;;;;;;;1.27;78.00;100739.94;5317972;28;20039;-71
2022/12/15 12:13:26;;;;;;;33.23;26.77;;;;;;;1.13;76.26;100744.75;5309115;28;20025;-70
2022/12/15 12:16:35;;;;;;;36.35;28.08;;;;;;;1.16;76.09;100738.00;5319294;28;20052;-70
2022/12/15 12:19:18;;;;;;;34.97;28.42;;;;;;;1.07;76.06;100732.00;5320839;28;20029;-68
2022/12/15 12:21:57;;;;;;;30.95;24.10;;;;;;;1.22;77.80;100732.41;5310413;28;20024;-69
2022/12/15 12:24:31;;;;;;;32.22;26.13;;;;;;;0.97;76.26;100732.56;5311347;28;20028;-67
2022/12/15 12:27:25;;;;;;;37.13;28.02;;;;;;;1.09;76.80;100727.13;5311354;28;20096;-69
2022/12/15 12:30:10;;;;;;;34.40;28.08;;;;;;;0.92;76.29;100721.50;5305335;28;20122;-67
2022/12/15 12:33:10;;;;;;;35.45;27.08;;;;;;;1.08;76.80;100720.03;5307946;28;20319;-69
2022/12/15 12:35:57;;;;;;;34.80;28.55;;;;;;;1.10;76.79;100728.81;5291055;28;20040;-69
2022/12/15 12:38:35;;;;;;;37.15;29.65;;;;;;;0.99;76.12;100732.31;5300487;28;20025;-68
2022/12/15 12:41:09;;;;;;;32.70;27.27;;;;;;;1.05;76.53;100732.25;5294533;28;20035;-68
2022/12/15 12:43:59;;;;;;;31.30;27.40;;;;;;;1.01;76.48;100730.19;5300878;28;20471;-68
2022/12/15 12:46:45;;;;;;;37.75;33.03;;;;;;;0.95;77.11;100731.94;5294568;28;20042;-68
2022/12/15 12:49:38;;;;;;;36.67;28.55;;;;;;;1.11;76.59;100730.47;5297841;28;20111;-69
2022/12/15 12:52:36;;;;;;;34.28;27.88;;;;;;;1.16;77.03;100727.91;5299604;28;20032;-68
2022/12/15 12:55:10;;;;;;;38.40;29.45;;;;;;;1.16;77.23;100718.88;5298082;28;20487;-68
2022/12/15 12:57:43;;;;;;;32.50;28.35;;;;;;;1.30;77.12;100717.59;5304528;28;20020;-69
2022/12/15 13:00:30;;;;;;;35.42;29.13;;;;;;;1.26;76.79;100710.97;5297567;28;20032;-68
2022/12/15 13:03:15;;;;;;;33.63;30.00;;;;;;;1.16;76.50;100711.50;5298250;28;20574;-68
2022/12/15 13:05:49;;;;;;;36.65;28.50;;;;;;;1.21;76.81;100699.88;5304551;28;20186;-68
2022/12/15 13:08:47;;;;;;;33.95;29.88;;;;;;;1.34;76.91;100701.59;5297819;28;20024;-68
2022/12/15 13:11:46;;;;;;;37.50;29.83;;;;;;;1.37;77.14;100690.19;5301020;28;20032;-69
2022/12/15 13:14:22;;;;;;;36.67;28.95;;;;;;;1.39;76.37;100696.28;5298824;28;20024;-68
2022/12/15 13:16:56;;;;;;;34.05;29.30;;;;;;;1.41;76.51;100694.97;5303630;28;20032;-68
2022/12/15 13:19:52;;;;;;;37.97;31.00;;;;;;;1.52;76.46;100688.69;5298687;28;20079;-68
2022/12/15 13:22:31;;;;;;;36.90;28.30;;;;;;;1.55;75.91;100681.94;5288987;28;20028;-68
2022/12/15 13:25:22;;;;;;;29.55;25.45;;;;;;;1.95;81.15;100676.66;5293892;28;20036;-69
2022/12/15 13:27:58;;;;;;;36.47;30.55;;;;;;;1.87;75.76;100670.72;5291902;28;20479;-68
2022/12/15 13:30:29;;;;;;;39.60;30.40;;;;;;;1.86;75.39;100679.97;5304038;28;20027;-68
2022/12/15 13:33:17;;;;;;;36.40;29.80;;;;;;;1.89;75.20;100676.75;5303778;28;20024;-68
2022/12/15 13:35:50;;;;;;;39.53;29.58;;;;;;;1.91;74.92;100669.97;5296403;28;20029;-69
2022/12/15 13:38:53;;;;;;;34.35;29.05;;;;;;;2.06;75.46;100669.50;5300369;28;20063;-69
2022/12/15 13:41:28;;;;;;;41.65;30.48;;;;;;;2.00;74.16;100670.47;5287896;28;20032;-69
2022/12/15 13:44:00;;;;;;;34.92;28.63;;;;;;;2.07;73.67;100665.72;5284272;28;20020;-69
2022/12/15 13:46:32;;;;;;;35.03;27.67;;;;;;;2.15;74.16;100668.09;5301867;28;20077;-69
2022/12/15 13:49:15;;;;;;;33.00;27.05;;;;;;;2.30;73.56;100669.50;5303340;28;20032;-69
2022/12/15 13:51:47;;;;;;;36.50;27.38;;;;;;;2.39;73.00;100677.13;5285251;28;20423;-69
2022/12/15 13:54:24;;;;;;;31.52;27.90;;;;;;;2.33;73.65;100675.34;5293073;28;20020;-69
2022/12/15 13:57:04;;;;;;;31.70;27.85;;;;;;;2.28;73.74;100672.50;5302824;28;20081;-69
2022/12/15 13:59:44;;;;;;;33.83;28.38;;;;;;;2.14;73.51;100666.41;5303306;28;20047;-69
2022/12/15 14:02:24;;;;;;;33.38;27.95;;;;;;;2.14;73.74;100671.06;5295192;28;20032;-69
2022/12/15 14:05:24;;;;;;;31.77;27.63;;;;;;;2.18;74.53;100667.63;5294936;28;20052;-68
2022/12/15 14:07:59;;;;;;;34.33;28.38;;;;;;;1.98;73.99;100671.78;5289193;28;20040;-67
2022/12/15 14:10:49;;;;;;;34.00;26.55;;;;;;;2.14;77.22;100663.69;5298670;28;20130;-67
2022/12/15 14:13:30;;;;;;;34.45;27.88;;;;;;;1.91;74.15;100667.25;5297409;28;20027;-68
2022/12/15 14:16:38;;;;;;;38.13;31.00;;;;;;;1.86;74.85;100663.56;5285297;28;20024;-67
2022/12/15 14:19:16;;;;;;;36.15;28.17;;;;;;;1.81;74.85;100657.97;5247647;28;20025;-67
2022/12/15 14:21:53;;;;;;;32.72;27.70;;;;;;;1.71;75.16;100653.06;5287498;28;20036;-68
2022/12/15 14:24:32;;;;;;;33.15;27.60;;;;;;;1.67;75.73;100660.09;5301925;28;20035;-68
2022/12/15 14:27:04;;;;;;;37.30;28.75;;;;;;;1.68;76.30;100648.06;5294630;28;20032;-68
2022/12/15 14:29:36;;;;;;;34.67;29.17;;;;;;;1.69;76.43;100647.03;5295067;28;20068;-70
2022/12/15 14:32:09;;;;;;;42.88;32.35;;;;;;;1.64;75.94;100641.44;5291621;28;20044;-69
2022/12/15 14:34:42;;;;;;;36.05;28.02;;;;;;;1.65;76.69;100640.34;5283204;28;20472;-70
2022/12/15 14:37:19;;;;;;;33.28;28.33;;;;;;;1.50;76.57;100640.78;5282948;28;20036;-69
2022/12/15 14:39:51;;;;;;;34.65;29.17;;;;;;;1.47;76.41;100644.84;5293472;28;20020;-69
2022/12/15 14:42:27;;;;;;;35.90;28.42;;;;;;;1.51;76.93;100639.75;5301776;28;20492;-70
2022/12/15 14:44:58;;;;;;;34.88;28.17;;;;;;;1.46;76.72;100634.16;5302072;28;20031;-69
2022/12/15 14:47:34;;;;;;;33.20;28.58;;;;;;;1.51;77.92;100634.28;5299437;28;20020;-69
2022/12/15 14:50:08;;;;;;;;;;;;;;;1.57;77.30;100637.97;5299356;28;20039;-71
2022/12/15 14:52:41;;;;;;;36.28;28.80;;;;;;;1.36;76.69;100625.69;5302067;28;19919;-71
2022/12/15 14:55:34;;;;;;;41.85;29.45;;;;;;;1.37;77.96;100635.53;5300411;28;20032;-70
2022/12/15 14:58:38;;;;;;;32.90;28.00;;;;;;;1.41;77.69;100629.38;5296445;28;20047;-70
2022/12/15 15:01:24;;;;;;;39.58;31.48;;;;;;;1.29;77.81;100620.31;5292572;28;20534;-70
2022/12/15 15:04:00;;;;;;;36.08;29.42;;;;;;;1.24;77.99;100614.72;5291032;28;20016;-70
2022/12/15 15:06:40;;;;;;;36.00;28.98;;;;;;;1.18;78.44;100613.75;5298211;28;20040;-70
2022/12/15 15:09:39;;;;;;;38.42;30.52;;;;;;;1.27;78.51;100614.25;5298575;28;20029;-71
2022/12/15 15:12:19;;;;;;;38.50;30.40;;;;;;;1.17;78.82;100614.00;5288435;28;20032;-70
2022/12/15 15:15:05;;;;;;;43.35;31.60;;;;;;;1.16;78.54;100612.34;5297495;28;20463;-69
2022/12/15 15:17:37;;;;;;;;;;;;;;;1.23;78.19;100619.38;5290603;28;20482;-67
2022/12/15 15:20:21;;;;;;;34.85;29.77;;;;;;;1.11;79.50;100618.50;5301492;28;19916;-68
2022/12/15 15:23:14;;;;;;;45.13;35.80;;;;;;;1.12;79.17;100616.59;5301687;28;20470;-68
2022/12/15 15:26:08;;;;;;;40.53;33.85;;;;;;;1.11;79.09;100614.94;5294124;28;20040;-68
2022/12/15 15:28:42;;;;;;;39.58;31.33;;;;;;;1.01;79.65;100615.50;5300281;28;20129;-68
2022/12/15 15:31:28;;;;;;;39.50;30.70;;;;;;;0.98;79.85;100610.50;5299817;28;20085;-69
2022/12/15 15:34:01;;;;;;;42.65;32.28;;;;;;;1.03;80.02;100618.81;5295598;28;20035;-70
2022/12/15 15:36:35;;;;;;;45.22;34.90;;;;;;;0.92;79.60;100620.44;5286300;28;20120;-69
2022/12/15 15:39:14;;;;;;;78.13;60.42;;;;;;;0.99;80.02;100623.91;5286361;28;20024;-69
2022/12/15 15:41:45;;;;;;;41.75;33.53;;;;;;;0.78;79.39;100621.69;5291424;28;20460;-68
2022/12/15 15:44:16;;;;;;;51.08;41.47;;;;;;;0.78;80.01;100625.25;5305179;28;20020;-67
2022/12/15 15:46:50;;;;;;;42.22;33.17;;;;;;;0.64;79.73;100626.50;5302003;28;20173;-67
2022/12/15 15:49:23;;;;;;;48.92;34.50;;;;;;;0.64;80.91;100621.03;5293909;28;20508;-67
2022/12/15 15:51:55;;;;;;;47.85;36.20;;;;;;;0.65;81.49;100622.69;5286727;28;20439;-68
2022/12/15 15:54:33;;;;;;;51.20;39.97;;;;;;;0.72;81.65;100618.00;5290966;28;20096;-67
2022/12/15 15:57:04;;;;;;;48.58;37.90;;;;;;;0.70;81.48;100625.56;5291094;28;20107;-68
2022/12/15 15:59:37;;;;;;;48.88;36.78;;;;;;;0.68;81.33;100621.41;5268605;28;20147;-70
2022/12/15 16:02:12;;;;;;;48.83;37.35;;;;;;;0.74;81.74;100632.25;5292333;28;20073;-70
2022/12/15 16:04:43;;;;;;;46.22;36.60;;;;;;;0.82;81.88;100629.19;5295485;28;20024;-69
2022/12/15 16:07:26;;;;;;;61.70;47.58;;;;;;;0.83;81.41;100636.31;5298879;28;20036;-69
2022/12/15 16:09:57;;;;;;;75.28;59.28;;;;;;;0.82;81.63;100626.47;5296811;28;20028;-69
2022/12/15 16:12:39;;;;;;;49.97;38.30;;;;;;;0.88;81.43;100621.13;5305301;28;20042;-71
2022/12/15 16:15:19;;;;;;;53.47;39.83;;;;;;;0.80;81.05;100625.84;5301829;28;20051;-71
2022/12/15 16:17:51;;;;;;;50.63;38.15;;;;;;;0.75;81.52;100616.69;5300267;28;20486;-71
2022/12/15 16:20:26;;;;;;;52.67;40.67;;;;;;;0.77;81.82;100630.94;5299259;28;20085;-72
2022/12/15 16:23:00;;;;;;;50.88;37.58;;;;;;;0.76;81.29;100624.63;5297549;28;20028;-71
2022/12/15 16:25:35;;;;;;;51.60;39.03;;;;;;;0.69;81.78;100632.09;5304812;28;20032;-70
2022/12/15 16:28:15;;;;;;;47.13;37.85;;;;;;;0.69;81.57;100634.84;5302525;28;20032;-70
2022/12/15 16:30:47;;;;;;;53.05;39.03;;;;;;;0.61;82.11;100640.56;5293310;28;20594;-71
2022/12/15 16:33:19;;;;;;;53.95;41.08;;;;;;;0.72;81.90;100633.53;5285390;28;20095;-69
2022/12/15 16:35:50;;;;;;;57.97;48.80;;;;;;;0.57;82.26;100637.47;5292706;28;20024;-70
